createdAt,value
2022-10-30T00:00:39.519Z,17.83
2022-10-30T00:03:06.396Z,18.35
2022-10-30T00:05:33.067Z,19.25
2022-10-30T00:08:00.091Z,18.33
2022-10-30T00:10:30.240Z,17.67
2022-10-30T00:12:57.937Z,18.05
2022-10-30T00:15:24.630Z,19.30
2022-10-30T00:17:51.361Z,18.10
2022-10-30T00:20:18.117Z,18.13
2022-10-30T00:22:44.764Z,18.07
2022-10-30T00:25:11.452Z,17.87
2022-10-30T00:27:38.071Z,18.27
2022-10-30T00:30:05.266Z,17.17
2022-10-30T00:32:31.869Z,17.93
2022-10-30T00:34:58.614Z,18.73
2022-10-30T00:37:25.262Z,17.53
2022-10-30T00:39:51.847Z,17.33
2022-10-30T00:42:18.409Z,17.53
2022-10-30T00:44:47.753Z,17.20
2022-10-30T00:47:23.497Z,17.20
2022-10-30T00:49:57.328Z,17.07
2022-10-30T00:52:26.550Z,25.57
2022-10-30T00:54:54.706Z,50.90
2022-10-30T00:57:21.672Z,111.67
2022-10-30T00:59:48.794Z,166.20
2022-10-30T01:02:16.574Z,61.97
2022-10-30T01:04:44.893Z,28.93
2022-10-30T01:07:14.518Z,25.20
2022-10-30T01:09:41.520Z,21.67
2022-10-30T01:12:08.881Z,21.50
2022-10-30T01:14:39.303Z,20.13
2022-10-30T01:17:34.674Z,19.90
2022-10-30T01:20:37.951Z,19.90
2022-10-30T01:23:49.716Z,19.80
2022-10-30T01:26:56.949Z,20.23
2022-10-30T01:29:33.549Z,18.97
2022-10-30T01:32:38.213Z,20.03
2022-10-30T01:35:19.124Z,19.97
2022-10-30T01:37:57.822Z,20.20
2022-10-30T01:40:24.772Z,20.10
2022-10-30T01:42:57.178Z,19.77
2022-10-30T01:45:42.247Z,18.87
2022-10-30T01:48:33.690Z,18.40
2022-10-30T01:51:23.472Z,19.47
2022-10-30T01:54:32.504Z,18.03
2022-10-30T01:57:18.015Z,18.37
2022-10-30T01:59:59.418Z,18.60
2022-10-30T02:02:26.705Z,18.73
2022-10-30T02:04:53.619Z,18.37
2022-10-30T02:07:20.477Z,18.67
2022-10-30T02:09:47.508Z,19.43
2022-10-30T02:12:14.468Z,18.73
2022-10-30T02:14:44.938Z,17.47
2022-10-30T02:17:12.507Z,19.40
2022-10-30T02:19:39.152Z,18.50
2022-10-30T02:22:06.103Z,18.77
2022-10-30T02:24:33.577Z,18.10
2022-10-30T02:27:00.614Z,18.00
2022-10-30T02:29:27.571Z,17.13
2022-10-30T02:31:54.164Z,18.67
2022-10-30T02:34:20.732Z,19.37
2022-10-30T02:36:47.428Z,18.50
2022-10-30T02:39:14.017Z,19.77
2022-10-30T02:41:40.703Z,19.13
2022-10-30T02:44:07.472Z,17.33
2022-10-30T02:46:34.451Z,19.03
2022-10-30T02:49:01.384Z,18.57
2022-10-30T02:51:28.010Z,18.70
2022-10-30T02:53:54.754Z,17.87
2022-10-30T02:56:21.406Z,17.90
2022-10-30T02:58:48.091Z,17.23
2022-10-30T03:01:17.795Z,18.27
2022-10-30T03:03:45.638Z,17.87
2022-10-30T03:06:15.621Z,17.63
2022-10-30T03:08:43.635Z,17.30
2022-10-30T03:11:15.636Z,19.20
2022-10-30T03:13:44.208Z,18.47
2022-10-30T03:16:16.879Z,18.00
2022-10-30T03:18:44.176Z,18.07
2022-10-30T03:21:15.124Z,18.33
2022-10-30T03:23:42.181Z,18.50
2022-10-30T03:26:09.483Z,18.30
2022-10-30T03:28:36.301Z,17.53
2022-10-30T03:31:08.577Z,17.90
2022-10-30T03:33:36.509Z,17.83
2022-10-30T03:36:04.716Z,18.20
2022-10-30T03:38:31.577Z,17.97
2022-10-30T03:40:58.249Z,17.30
2022-10-30T03:43:25.052Z,17.80
2022-10-30T03:45:53.797Z,17.60
2022-10-30T03:48:22.510Z,17.90
2022-10-30T03:50:49.328Z,17.57
2022-10-30T03:53:16.154Z,17.13
2022-10-30T03:55:42.764Z,17.43
2022-10-30T03:58:09.350Z,18.30
2022-10-30T04:00:36.370Z,17.40
2022-10-30T04:03:06.853Z,17.00
2022-10-30T04:05:33.570Z,17.70
2022-10-30T04:08:02.601Z,17.17
2022-10-30T04:10:29.525Z,17.47
2022-10-30T04:13:01.408Z,17.77
2022-10-30T04:15:28.061Z,17.13
2022-10-30T04:17:55.328Z,15.63
2022-10-30T04:20:24.682Z,16.87
2022-10-30T04:23:00.001Z,16.90
2022-10-30T04:25:27.738Z,17.03
2022-10-30T04:27:54.788Z,15.87
2022-10-30T04:30:22.521Z,15.70
2022-10-30T04:32:50.725Z,16.67
2022-10-30T04:35:19.414Z,16.30
2022-10-30T04:37:54.177Z,16.20
2022-10-30T04:40:21.860Z,15.60
2022-10-30T04:42:48.498Z,16.17
2022-10-30T04:45:15.437Z,15.83
2022-10-30T04:47:42.413Z,15.97
2022-10-30T04:50:09.873Z,15.50
2022-10-30T04:52:36.777Z,15.40
2022-10-30T04:55:04.029Z,16.43
2022-10-30T04:57:31.686Z,15.83
2022-10-30T04:59:59.120Z,15.70
2022-10-30T05:02:26.288Z,15.73
2022-10-30T05:04:53.092Z,15.37
2022-10-30T05:07:19.709Z,15.47
2022-10-30T05:09:46.246Z,15.00
2022-10-30T05:12:12.858Z,15.47
2022-10-30T05:14:39.502Z,15.77
2022-10-30T05:17:06.024Z,15.50
2022-10-30T05:19:32.591Z,15.60
2022-10-30T05:21:59.163Z,16.60
2022-10-30T05:24:25.816Z,15.70
2022-10-30T05:26:52.413Z,14.90
2022-10-30T05:29:18.987Z,15.47
2022-10-30T05:31:45.634Z,15.40
2022-10-30T05:34:12.285Z,15.27
2022-10-30T05:36:38.835Z,14.93
2022-10-30T05:39:05.635Z,15.33
2022-10-30T05:41:32.215Z,14.30
2022-10-30T05:43:58.842Z,14.60
2022-10-30T05:46:25.549Z,14.77
2022-10-30T05:48:52.141Z,14.63
2022-10-30T05:51:18.700Z,13.97
2022-10-30T05:53:48.701Z,13.63
2022-10-30T05:56:15.495Z,14.50
2022-10-30T05:58:42.073Z,14.57
2022-10-30T06:01:08.783Z,14.87
2022-10-30T06:03:35.370Z,13.73
2022-10-30T06:06:02.458Z,14.53
2022-10-30T06:08:29.079Z,13.67
2022-10-30T06:10:55.889Z,14.20
2022-10-30T06:13:22.711Z,13.07
2022-10-30T06:15:49.333Z,13.23
2022-10-30T06:18:16.016Z,13.17
2022-10-30T06:20:42.717Z,13.73
2022-10-30T06:23:10.625Z,13.03
2022-10-30T06:25:40.936Z,13.90
2022-10-30T06:28:10.273Z,12.63
2022-10-30T06:30:36.990Z,12.97
2022-10-30T06:33:05.361Z,13.33
2022-10-30T06:35:32.414Z,12.67
2022-10-30T06:38:02.428Z,13.10
2022-10-30T06:40:30.133Z,13.27
2022-10-30T06:42:57.571Z,12.90
2022-10-30T06:45:25.453Z,13.27
2022-10-30T06:47:52.337Z,13.43
2022-10-30T06:50:20.910Z,16.40
2022-10-30T06:52:48.275Z,18.63
2022-10-30T06:55:15.123Z,15.37
2022-10-30T06:57:41.759Z,13.30
2022-10-30T07:00:09.730Z,13.27
2022-10-30T07:02:36.398Z,13.23
2022-10-30T07:05:03.180Z,13.80
2022-10-30T07:07:30.177Z,11.83
2022-10-30T07:09:56.804Z,12.57
2022-10-30T07:12:23.377Z,13.00
2022-10-30T07:14:49.972Z,13.03
2022-10-30T07:17:16.578Z,12.87
2022-10-30T07:19:43.185Z,12.83
2022-10-30T07:22:09.745Z,12.53
2022-10-30T07:24:36.306Z,13.13
2022-10-30T07:27:02.844Z,12.17
2022-10-30T07:29:29.370Z,13.30
2022-10-30T07:32:02.997Z,12.87
2022-10-30T07:34:30.302Z,12.27
2022-10-30T07:36:56.839Z,12.30
2022-10-30T07:39:23.366Z,13.50
2022-10-30T07:41:50.575Z,11.83
2022-10-30T07:44:17.440Z,12.73
2022-10-30T07:46:44.076Z,12.43
2022-10-30T07:49:10.677Z,12.50
2022-10-30T07:51:37.199Z,12.87
2022-10-30T07:54:03.959Z,13.00
2022-10-30T07:56:30.529Z,13.27
2022-10-30T07:58:57.129Z,13.07
2022-10-30T08:01:23.826Z,12.10
2022-10-30T08:03:50.526Z,12.57
2022-10-30T08:06:20.014Z,12.93
2022-10-30T08:08:49.634Z,12.50
2022-10-30T08:11:16.203Z,12.43
2022-10-30T08:13:42.899Z,12.60
2022-10-30T08:16:09.459Z,12.70
2022-10-30T08:18:36.009Z,12.88
2022-10-30T08:21:02.588Z,12.13
2022-10-30T08:23:29.230Z,12.10
2022-10-30T08:26:00.224Z,11.83
2022-10-30T08:28:31.585Z,11.93
2022-10-30T08:31:01.082Z,11.87
2022-10-30T08:33:28.269Z,11.83
2022-10-30T08:35:57.382Z,11.63
2022-10-30T08:38:25.069Z,11.57
2022-10-30T08:40:52.229Z,11.45
2022-10-30T08:43:19.074Z,11.53
2022-10-30T08:45:45.655Z,11.07
2022-10-30T08:48:14.088Z,11.20
2022-10-30T08:50:40.905Z,11.37
2022-10-30T08:53:11.575Z,11.68
2022-10-30T08:55:38.370Z,10.90
2022-10-30T08:58:04.959Z,11.05
2022-10-30T09:00:31.782Z,10.77
2022-10-30T09:02:59.001Z,11.35
2022-10-30T09:05:26.227Z,10.98
2022-10-30T09:07:58.130Z,11.10
2022-10-30T09:10:24.911Z,10.07
2022-10-30T09:12:58.526Z,10.25
2022-10-30T09:15:26.273Z,10.45
2022-10-30T09:18:01.278Z,9.68
2022-10-30T09:20:29.009Z,9.52
2022-10-30T09:22:55.752Z,9.43
2022-10-30T09:25:22.477Z,8.60
2022-10-30T09:27:49.154Z,8.38
2022-10-30T09:30:15.889Z,8.20
2022-10-30T09:32:42.601Z,8.82
2022-10-30T09:35:09.319Z,7.95
2022-10-30T09:37:37.027Z,8.52
2022-10-30T09:40:05.514Z,8.15
2022-10-30T09:42:36.503Z,8.07
2022-10-30T09:45:31.680Z,9.13
2022-10-30T09:48:34.443Z,8.27
2022-10-30T09:51:29.296Z,8.02
2022-10-30T09:54:05.565Z,8.40
2022-10-30T09:56:58.048Z,8.32
2022-10-30T09:59:38.179Z,8.43
2022-10-30T10:02:31.960Z,7.53
2022-10-30T10:05:05.552Z,7.70
2022-10-30T10:07:41.823Z,7.68
2022-10-30T10:10:18.482Z,7.30
2022-10-30T10:12:48.968Z,7.70
2022-10-30T10:15:42.175Z,7.75
2022-10-30T10:18:18.778Z,7.68
2022-10-30T10:20:50.248Z,7.93
2022-10-30T10:23:26.977Z,7.13
2022-10-30T10:25:54.497Z,6.97
2022-10-30T10:28:36.868Z,7.30
2022-10-30T10:31:20.743Z,7.55
2022-10-30T10:34:02.120Z,6.90
2022-10-30T10:36:50.513Z,7.18
2022-10-30T10:39:34.849Z,6.75
2022-10-30T10:42:54.157Z,7.10
2022-10-30T10:45:48.263Z,7.00
2022-10-30T10:48:37.502Z,6.35
2022-10-30T10:51:13.832Z,6.53
2022-10-30T10:53:48.789Z,6.00
2022-10-30T10:56:16.049Z,6.80
2022-10-30T10:58:56.406Z,6.05
2022-10-30T11:01:34.006Z,6.18
2022-10-30T11:04:09.954Z,6.25
2022-10-30T11:06:42.882Z,6.25
2022-10-30T11:09:21.036Z,6.28
2022-10-30T11:11:49.200Z,6.10
2022-10-30T11:14:21.967Z,6.75
2022-10-30T11:16:52.319Z,5.85
2022-10-30T11:19:19.204Z,6.35
2022-10-30T11:21:50.684Z,6.43
2022-10-30T11:24:36.482Z,5.75
2022-10-30T11:27:24.797Z,6.60
2022-10-30T11:30:06.079Z,5.70
2022-10-30T11:32:34.393Z,5.60
2022-10-30T11:35:09.864Z,6.30
2022-10-30T11:37:39.307Z,6.15
2022-10-30T11:40:11.964Z,6.20
2022-10-30T11:42:48.649Z,6.63
2022-10-30T11:45:37.618Z,6.80
2022-10-30T11:48:14.112Z,6.85
2022-10-30T11:50:47.819Z,6.20
2022-10-30T11:53:30.798Z,8.00
2022-10-30T11:55:58.746Z,7.03
2022-10-30T11:58:35.633Z,6.75
2022-10-30T12:51:40.910Z,6.00
2022-10-30T12:54:33.867Z,7.13
2022-10-30T12:57:28.939Z,6.47
2022-10-30T13:00:13.869Z,5.95
2022-10-30T13:03:00.405Z,6.20
2022-10-30T13:05:40.055Z,6.55
2022-10-30T13:08:29.697Z,6.22
2022-10-30T13:11:19.108Z,6.18
2022-10-30T13:13:49.983Z,6.20
2022-10-30T13:16:22.482Z,5.97
2022-10-30T13:18:49.629Z,5.90
2022-10-30T13:21:40.338Z,6.07
2022-10-30T13:24:14.851Z,6.53
2022-10-30T13:26:50.205Z,5.97
2022-10-30T13:29:31.344Z,6.03
2022-10-30T13:32:35.714Z,5.20
2022-10-30T13:35:23.515Z,6.47
2022-10-30T13:38:03.252Z,6.75
2022-10-30T13:40:38.676Z,5.97
2022-10-30T13:43:24.028Z,6.57
2022-10-30T13:46:05.784Z,6.22
2022-10-30T13:49:04.442Z,6.10
2022-10-30T13:51:44.890Z,5.93
2022-10-30T13:54:25.274Z,5.65
2022-10-30T13:56:53.917Z,5.68
2022-10-30T13:59:36.243Z,5.38
2022-10-30T14:02:08.969Z,7.00
2022-10-30T14:04:54.262Z,6.47
2022-10-30T14:07:33.468Z,6.55
2022-10-30T14:10:10.039Z,7.70
2022-10-30T14:12:56.755Z,6.75
2022-10-30T14:15:29.749Z,8.63
2022-10-30T14:18:14.435Z,8.90
2022-10-30T14:20:49.004Z,7.53
2022-10-30T14:23:33.760Z,6.20
2022-10-30T14:26:03.290Z,7.57
2022-10-30T14:28:36.033Z,7.13
2022-10-30T14:31:17.510Z,6.32
2022-10-30T14:33:49.669Z,6.47
2022-10-30T14:36:26.734Z,6.50
2022-10-30T14:39:26.648Z,6.20
2022-10-30T14:42:20.154Z,6.03
2022-10-30T14:45:10.270Z,5.65
2022-10-30T14:47:55.553Z,5.50
2022-10-30T14:50:37.421Z,6.60
2022-10-30T14:53:31.756Z,6.40
2022-10-30T14:56:19.964Z,6.35
2022-10-30T14:59:12.138Z,6.63
2022-10-30T15:01:52.532Z,7.22
2022-10-30T15:04:50.014Z,7.10
2022-10-30T15:07:38.293Z,6.40
2022-10-30T15:10:31.097Z,6.55
2022-10-30T15:13:19.110Z,6.60
2022-10-30T15:15:56.751Z,6.63
2022-10-30T15:18:26.765Z,6.72
2022-10-30T15:21:01.611Z,6.68
2022-10-30T15:23:30.380Z,6.10
2022-10-30T15:26:02.554Z,5.93
2022-10-30T15:28:35.401Z,6.50
2022-10-30T15:31:03.445Z,6.85
2022-10-30T15:33:32.370Z,7.38
2022-10-30T15:35:59.564Z,7.80
2022-10-30T15:38:26.180Z,8.10
2022-10-30T15:40:58.987Z,7.28
2022-10-30T15:43:34.292Z,7.68
2022-10-30T15:46:01.048Z,7.40
2022-10-30T15:48:31.469Z,7.53
2022-10-30T15:51:06.346Z,7.80
2022-10-30T15:53:40.442Z,7.95
2022-10-30T15:56:17.275Z,9.90
2022-10-30T15:58:54.308Z,8.60
2022-10-30T16:01:33.481Z,8.77
2022-10-30T16:04:00.685Z,9.68
2022-10-30T16:06:30.470Z,9.20
2022-10-30T16:08:57.484Z,9.30
2022-10-30T16:11:26.288Z,8.82
2022-10-30T16:13:53.224Z,9.52
2022-10-30T16:16:24.565Z,9.70
2022-10-30T16:18:52.256Z,9.38
2022-10-30T16:21:22.417Z,10.88
2022-10-30T16:23:51.973Z,10.65
2022-10-30T16:26:37.921Z,10.63
2022-10-30T16:29:16.999Z,11.73
2022-10-30T16:31:49.579Z,11.82
2022-10-30T16:34:35.153Z,12.93
2022-10-30T16:37:03.901Z,12.98
2022-10-30T16:39:32.791Z,13.43
2022-10-30T16:42:00.207Z,13.00
2022-10-30T16:44:28.251Z,13.65
2022-10-30T16:47:22.309Z,14.27
2022-10-30T16:49:56.274Z,15.10
2022-10-30T16:52:30.750Z,14.10
2022-10-30T16:55:04.148Z,12.55
2022-10-30T16:57:34.876Z,12.40
2022-10-30T17:00:02.372Z,12.20
2022-10-30T17:02:37.169Z,11.95
2022-10-30T17:05:24.989Z,10.80
2022-10-30T17:08:04.163Z,10.45
2022-10-30T17:10:42.445Z,11.40
2022-10-30T17:13:43.315Z,11.18
2022-10-30T17:16:18.845Z,12.20
2022-10-30T17:18:46.848Z,10.68
2022-10-30T17:21:17.032Z,13.75
2022-10-30T17:23:56.257Z,14.35
2022-10-30T17:26:23.286Z,13.95
2022-10-30T17:28:49.907Z,18.00
2022-10-30T17:31:29.684Z,22.58
2022-10-30T17:34:13.389Z,22.02
2022-10-30T17:36:40.294Z,20.77
2022-10-30T17:39:06.949Z,19.20
2022-10-30T17:41:33.971Z,19.90
2022-10-30T17:44:01.335Z,18.75
2022-10-30T17:46:28.219Z,16.48
2022-10-30T17:48:54.842Z,16.23
2022-10-30T17:51:21.381Z,16.02
2022-10-30T17:53:48.494Z,15.63
2022-10-30T17:56:21.418Z,15.60
2022-10-30T17:58:48.010Z,15.32
2022-10-30T18:01:21.389Z,16.05
2022-10-30T18:03:48.850Z,15.13
2022-10-30T18:06:17.770Z,15.65
2022-10-30T18:08:47.855Z,15.00
2022-10-30T18:11:21.373Z,16.07
2022-10-30T18:13:49.311Z,17.13
2022-10-30T18:16:17.533Z,21.40
2022-10-30T18:18:45.396Z,21.43
2022-10-30T18:21:14.286Z,20.57
2022-10-30T18:23:56.447Z,18.87
2022-10-30T18:26:25.177Z,17.37
2022-10-30T18:28:52.392Z,17.30
2022-10-30T18:31:22.039Z,17.07
2022-10-30T18:33:48.994Z,18.07
2022-10-30T18:36:18.387Z,18.63
2022-10-30T18:38:44.922Z,18.30
2022-10-30T18:41:31.412Z,17.02
2022-10-30T18:43:58.031Z,18.03
2022-10-30T18:46:24.708Z,17.90
2022-10-30T18:48:51.312Z,19.75
2022-10-30T18:51:22.653Z,19.27
2022-10-30T18:53:52.643Z,18.42
2022-10-30T18:56:21.436Z,17.47
2022-10-30T18:58:48.742Z,18.03
2022-10-30T19:01:16.813Z,18.63
2022-10-30T19:03:43.807Z,17.80
2022-10-30T19:06:15.829Z,17.27
2022-10-30T19:08:42.619Z,17.97
2022-10-30T19:11:20.346Z,18.50
2022-10-30T19:13:51.195Z,17.90
2022-10-30T19:16:19.223Z,18.60
2022-10-30T19:18:46.200Z,18.60
2022-10-30T19:21:18.813Z,18.50
2022-10-30T19:23:45.449Z,19.67
2022-10-30T19:26:14.258Z,19.77
2022-10-30T19:28:41.152Z,19.17
2022-10-30T19:31:11.135Z,19.90
2022-10-30T19:33:37.701Z,18.63
2022-10-30T19:36:04.956Z,17.90
2022-10-30T19:38:32.857Z,17.73
2022-10-30T19:41:00.619Z,18.07
2022-10-30T19:43:27.374Z,17.67
2022-10-30T19:45:56.839Z,18.70
2022-10-30T19:48:47.776Z,19.67
2022-10-30T19:51:11.564Z,19.70
2022-10-30T19:53:39.691Z,19.20
2022-10-30T19:56:06.755Z,20.10
2022-10-30T19:58:33.314Z,20.03
2022-10-30T20:01:00.118Z,21.50
2022-10-30T20:03:26.787Z,20.13
2022-10-30T20:05:54.179Z,21.33
2022-10-30T20:08:23.162Z,21.67
2022-10-30T20:10:52.137Z,22.30
2022-10-30T20:13:20.258Z,21.23
2022-10-30T20:15:47.304Z,21.90
2022-10-30T20:18:16.703Z,22.63
2022-10-30T20:20:49.001Z,21.73
2022-10-30T20:23:16.025Z,21.37
2022-10-30T20:25:43.379Z,25.43
2022-10-30T20:28:20.636Z,21.73
2022-10-30T20:30:47.433Z,20.73
2022-10-30T20:33:14.352Z,22.30
2022-10-30T20:35:42.559Z,21.33
2022-10-30T20:38:16.579Z,20.97
2022-10-30T20:40:43.748Z,19.70
2022-10-30T20:43:14.830Z,19.67
2022-10-30T20:45:41.402Z,20.97
2022-10-30T20:48:08.075Z,19.10
2022-10-30T20:50:34.674Z,19.93
2022-10-30T20:53:01.233Z,19.47
2022-10-30T20:55:27.896Z,19.47
2022-10-30T20:57:54.536Z,20.57
2022-10-30T21:00:21.207Z,19.53
2022-10-30T21:02:47.763Z,20.87
2022-10-30T21:05:30.613Z,21.90
2022-10-30T21:08:01.368Z,21.50
2022-10-30T21:10:30.575Z,22.20
2022-10-30T21:12:59.001Z,26.07
2022-10-30T21:15:29.430Z,26.20
2022-10-30T21:17:56.002Z,22.90
2022-10-30T21:20:22.774Z,22.30
2022-10-30T21:22:49.322Z,21.13
2022-10-30T21:25:15.943Z,19.03
2022-10-30T21:27:42.550Z,19.27
2022-10-30T21:30:09.798Z,18.73
2022-10-30T21:32:36.364Z,18.13
2022-10-30T21:35:03.051Z,19.17
2022-10-30T21:37:33.586Z,19.23
2022-10-30T21:40:00.226Z,18.97
2022-10-30T21:44:54.388Z,19.37
2022-10-30T21:47:20.983Z,18.27
2022-10-30T21:49:47.544Z,18.97
2022-10-30T21:52:14.132Z,19.60
2022-10-30T21:54:40.687Z,20.87
2022-10-30T21:57:07.440Z,20.90
2022-10-30T21:59:34.370Z,20.57
2022-10-30T22:02:01.086Z,20.57
2022-10-30T22:04:29.398Z,20.20
2022-10-30T22:06:55.931Z,21.03
2022-10-30T22:09:22.548Z,20.17
2022-10-30T22:11:49.184Z,19.30
2022-10-30T22:14:15.825Z,21.40
2022-10-30T22:16:42.669Z,19.87
2022-10-30T22:19:10.421Z,22.30
2022-10-30T22:21:36.959Z,20.10
2022-10-30T22:24:04.380Z,21.23
2022-10-30T22:26:31.024Z,20.57
2022-10-30T22:28:59.590Z,20.93
2022-10-30T22:31:28.533Z,21.97
2022-10-30T22:33:55.143Z,20.30
2022-10-30T22:36:30.894Z,80.00
2022-10-30T22:39:03.103Z,25.13
2022-10-30T22:41:34.502Z,20.37
2022-10-30T22:44:07.795Z,21.07
2022-10-30T22:46:35.440Z,21.27
2022-10-30T22:49:02.058Z,20.90
2022-10-30T22:51:31.931Z,21.10
2022-10-30T22:54:01.658Z,21.50
2022-10-30T22:56:31.574Z,20.47
2022-10-30T22:59:01.704Z,20.27
2022-10-30T23:01:30.586Z,20.57
2022-10-30T23:03:59.518Z,20.30
2022-10-30T23:06:27.255Z,21.53
2022-10-30T23:08:56.629Z,19.63
2022-10-30T23:11:23.712Z,20.03
2022-10-30T23:13:50.440Z,20.80
2022-10-30T23:16:19.386Z,20.87
2022-10-30T23:18:46.620Z,21.20
2022-10-30T23:21:16.946Z,20.90
2022-10-30T23:23:44.066Z,20.03
2022-10-30T23:26:15.234Z,22.50
2022-10-30T23:28:42.672Z,20.83
2022-10-30T23:31:10.530Z,20.93
2022-10-30T23:33:37.122Z,22.10
2022-10-30T23:36:04.678Z,20.63
2022-10-30T23:38:31.279Z,21.50
2022-10-30T23:40:57.824Z,21.60
2022-10-30T23:43:24.396Z,19.97
2022-10-30T23:45:50.998Z,19.77
2022-10-30T23:48:17.553Z,21.37
2022-10-30T23:50:44.129Z,20.97
2022-10-30T23:53:10.664Z,19.83
2022-10-30T23:55:37.237Z,20.37
2022-10-30T23:58:04.168Z,20.57
